Time;durP1;ratioP1;P1;durP2;ratioP2;P2;SDS_P1;SDS_P2;PMS_P1;PMS_P2;Temp;Humidity;BMP_temperature;BMP_pressure;BME280_temperature;BME280_humidity;BME280_pressure;Samples;Min_cycle;Max_cycle;Signal;HPM_P1;HPM_P2
2023/10/05 05:02:17;;;;;;;15.47;6.70;;;;;;;;;;5136859;23;20516;-69
2023/10/05 05:07:12;;;;;;;19.00;7.27;;;;;;;;;;4936289;29;20485;-69
2023/10/05 05:09:42;;;;;;;23.97;6.63;;;;;;;;;;4935928;29;20414;-69
2023/10/05 05:12:09;;;;;;;16.27;7.20;;;;;;;;;;4936862;29;20433;-70
2023/10/05 05:14:36;;;;;;;17.30;6.80;;;;;;;;;;4937195;29;20414;-72
2023/10/05 05:17:05;;;;;;;15.30;7.20;;;;;;;;;;4936098;29;20474;-71
2023/10/05 05:19:35;;;;;;;13.03;6.20;;;;;;;;;;4936440;29;20420;-72
2023/10/05 05:22:02;;;;;;;13.50;6.40;;;;;;;;;;4936395;29;20425;-72
2023/10/05 05:24:29;;;;;;;19.20;7.20;;;;;;;;;;4936015;29;20864;-72
2023/10/05 05:27:03;;;;;;;18.33;7.00;;;;;;;;;;4935889;29;20596;-71
2023/10/05 05:29:30;;;;;;;35.20;7.20;;;;;;;;;;4936341;29;20424;-72
2023/10/05 05:31:56;;;;;;;18.70;6.80;;;;;;;;;;4936229;29;20532;-71
2023/10/05 05:34:26;;;;;;;17.00;6.10;;;;;;;;;;4936077;29;20450;-71
2023/10/05 05:36:56;;;;;;;14.77;6.17;;;;;;;;;;4935646;29;20972;-71
2023/10/05 05:39:23;;;;;;;13.27;6.50;;;;;;;;;;4935960;29;20482;-72
2023/10/05 05:41:59;;;;;;;19.23;6.20;;;;;;;;;;4936199;29;20430;-71
2023/10/05 05:44:25;;;;;;;23.70;8.20;;;;;;;;;;4935946;29;20409;-72
2023/10/05 05:46:55;;;;;;;12.23;6.07;;;;;;;;;;4935657;29;20414;-71
2023/10/05 05:49:21;;;;;;;13.80;6.13;;;;;;;;;;4935930;29;20409;-69
2023/10/05 05:51:47;;;;;;;19.20;6.87;;;;;;;;;;4935769;29;20528;-71
2023/10/05 05:54:13;;;;;;;12.00;6.10;;;;;;;;;;4935785;29;20417;-72
2023/10/05 05:56:42;;;;;;;13.07;5.97;;;;;;;;;;4935265;29;20999;-71
2023/10/05 05:59:09;;;;;;;14.97;5.63;;;;;;;;;;4935840;29;20422;-71
2023/10/05 06:01:35;;;;;;;12.97;6.10;;;;;;;;;;4935314;29;20949;-71
2023/10/05 06:04:01;;;;;;;23.33;7.40;;;;;;;;;;4935636;29;20417;-71
2023/10/05 06:06:27;;;;;;;11.73;5.10;;;;;;;;;;4935564;29;20438;-69
2023/10/05 06:08:53;;;;;;;13.90;5.67;;;;;;;;;;4935531;29;20413;-69
2023/10/05 06:11:19;;;;;;;24.97;6.03;;;;;;;;;;4935419;29;20442;-69
2023/10/05 06:13:45;;;;;;;21.47;6.70;;;;;;;;;;4935479;29;20420;-69
2023/10/05 06:16:13;;;;;;;18.77;6.50;;;;;;;;;;4935364;29;20469;-69
2023/10/05 06:18:39;;;;;;;18.30;5.23;;;;;;;;;;4935435;29;20798;-69
2023/10/05 06:21:06;;;;;;;11.37;5.30;;;;;;;;;;4934866;29;20512;-69
2023/10/05 06:23:33;;;;;;;12.60;5.70;;;;;;;;;;4935337;29;20477;-69
2023/10/05 06:25:59;;;;;;;13.00;5.50;;;;;;;;;;4934867;29;20440;-69
2023/10/05 06:28:25;;;;;;;11.40;6.40;;;;;;;;;;4935216;29;20414;-70
2023/10/05 06:30:52;;;;;;;16.10;5.47;;;;;;;;;;4935421;29;20426;-70
2023/10/05 06:33:19;;;;;;;10.83;5.30;;;;;;;;;;4935356;29;20410;-75
2023/10/05 06:35:46;;;;;;;11.60;5.40;;;;;;;;;;4935046;29;20510;-70
2023/10/05 06:38:12;;;;;;;21.23;6.23;;;;;;;;;;4934975;29;20461;-70
2023/10/05 06:40:38;;;;;;;16.07;6.43;;;;;;;;;;4934903;29;20442;-69
2023/10/05 06:43:07;;;;;;;13.70;5.80;;;;;;;;;;4935110;29;20420;-69
2023/10/05 06:45:35;;;;;;;13.20;5.77;;;;;;;;;;4934892;29;20445;-71
2023/10/05 06:48:02;;;;;;;18.23;6.20;;;;;;;;;;4933551;29;20424;-70
2023/10/05 06:50:28;;;;;;;16.23;5.80;;;;;;;;;;4934962;29;20481;-70
2023/10/05 06:52:55;;;;;;;12.47;5.43;;;;;;;;;;4933572;29;20866;-70
2023/10/05 06:55:24;;;;;;;20.97;7.47;;;;;;;;;;4934413;29;20457;-71
2023/10/05 06:57:51;;;;;;;23.07;6.30;;;;;;;;;;4934798;29;21051;-70
2023/10/05 07:00:21;;;;;;;17.00;6.10;;;;;;;;;;4935304;29;20938;-70
2023/10/05 07:02:52;;;;;;;17.03;6.90;;;;;;;;;;4934794;29;20409;-71
2023/10/05 07:05:20;;;;;;;11.30;6.17;;;;;;;;;;4934744;29;20947;-70
2023/10/05 07:07:46;;;;;;;14.37;6.43;;;;;;;;;;4934542;29;20416;-70
2023/10/05 07:10:17;;;;;;;14.13;5.57;;;;;;;;;;4935137;29;20505;-71
2023/10/05 07:12:47;;;;;;;14.73;5.87;;;;;;;;;;4934493;29;20426;-68
2023/10/05 07:15:22;;;;;;;15.93;5.53;;;;;;;;;;4933562;29;20485;-68
2023/10/05 07:17:49;;;;;;;15.47;5.33;;;;;;;;;;4934710;29;20472;-67
2023/10/05 07:20:17;;;;;;;15.30;6.00;;;;;;;;;;4934385;29;20430;-67
2023/10/05 07:22:47;;;;;;;16.60;5.73;;;;;;;;;;4934691;29;20414;-67
2023/10/05 07:25:14;;;;;;;18.23;5.97;;;;;;;;;;4934188;29;20405;-68
2023/10/05 07:27:41;;;;;;;26.00;5.63;;;;;;;;;;4934052;29;20429;-68
2023/10/05 07:30:11;;;;;;;12.93;6.10;;;;;;;;;;4934497;29;20487;-67
2023/10/05 07:32:37;;;;;;;12.73;5.20;;;;;;;;;;4937213;29;20413;-68
2023/10/05 07:35:07;;;;;;;19.20;6.37;;;;;;;;;;4937968;29;20485;-68
2023/10/05 07:37:36;;;;;;;19.07;6.00;;;;;;;;;;4937915;29;20963;-71
2023/10/05 07:40:09;;;;;;;11.13;5.53;;;;;;;;;;4938103;29;20429;-71
2023/10/05 07:42:37;;;;;;;15.87;6.50;;;;;;;;;;4938159;29;20426;-69
2023/10/05 07:45:07;;;;;;;12.50;6.00;;;;;;;;;;4934088;29;20466;-70
2023/10/05 07:47:33;;;;;;;14.53;6.20;;;;;;;;;;4937933;29;20417;-71
2023/10/05 07:49:59;;;;;;;17.23;6.23;;;;;;;;;;4938097;29;20859;-71
2023/10/05 07:52:27;;;;;;;32.93;6.93;;;;;;;;;;4938476;29;20441;-71
2023/10/05 07:54:53;;;;;;;13.97;5.93;;;;;;;;;;4937724;29;20880;-71
2023/10/05 07:57:19;;;;;;;11.50;5.20;;;;;;;;;;4937542;29;20548;-72
2023/10/05 07:59:44;;;;;;;14.43;5.17;;;;;;;;;;4937966;29;20422;-71
2023/10/05 08:02:11;;;;;;;14.53;5.57;;;;;;;;;;4937659;29;20513;-71
2023/10/05 08:04:37;;;;;;;11.00;4.93;;;;;;;;;;4937743;29;20406;-69
2023/10/05 08:07:03;;;;;;;23.50;5.80;;;;;;;;;;4937810;29;20898;-71
2023/10/05 08:09:30;;;;;;;18.20;6.63;;;;;;;;;;4937728;29;20416;-71
2023/10/05 08:11:59;;;;;;;13.17;5.57;;;;;;;;;;4937689;29;20437;-71
2023/10/05 08:14:25;;;;;;;18.53;7.10;;;;;;;;;;4937703;29;20488;-71
2023/10/05 08:16:51;;;;;;;11.40;5.07;;;;;;;;;;4937148;29;20457;-72
2023/10/05 08:19:21;;;;;;;17.57;5.70;;;;;;;;;;4937606;29;20418;-71
2023/10/05 08:21:47;;;;;;;14.93;6.13;;;;;;;;;;4937450;29;20456;-71
2023/10/05 08:24:17;;;;;;;15.10;5.97;;;;;;;;;;4937770;29;20417;-71
2023/10/05 08:26:43;;;;;;;15.27;6.27;;;;;;;;;;4937300;29;20440;-72
2023/10/05 08:29:09;;;;;;;22.43;6.63;;;;;;;;;;4937461;29;20421;-71
2023/10/05 08:31:36;;;;;;;11.20;6.13;;;;;;;;;;4936607;29;20952;-71
2023/10/05 08:34:03;;;;;;;16.77;6.03;;;;;;;;;;4937578;29;20496;-71
2023/10/05 08:36:30;;;;;;;20.30;6.37;;;;;;;;;;4937058;29;20469;-71
2023/10/05 08:38:57;;;;;;;13.87;6.87;;;;;;;;;;4937249;29;20616;-71
2023/10/05 08:41:31;;;;;;;18.00;6.83;;;;;;;;;;4937109;29;20955;-71
2023/10/05 08:43:58;;;;;;;21.07;7.00;;;;;;;;;;4934322;29;20435;-71
2023/10/05 08:46:24;;;;;;;19.70;6.60;;;;;;;;;;4926264;29;20426;-71
2023/10/05 08:48:50;;;;;;;18.20;6.93;;;;;;;;;;4918192;29;20423;-71
2023/10/05 08:51:16;;;;;;;14.77;6.00;;;;;;;;;;4934232;29;20822;-71
2023/10/05 08:53:48;;;;;;;20.40;6.60;;;;;;;;;;4936859;29;20406;-71
2023/10/05 08:56:15;;;;;;;23.40;6.67;;;;;;;;;;4936579;29;20412;-71
2023/10/05 08:58:45;;;;;;;14.20;6.60;;;;;;;;;;4936749;29;20426;-72
2023/10/05 09:01:24;;;;;;;23.27;5.87;;;;;;;;;;4936593;29;20446;-72
2023/10/05 09:03:54;;;;;;;21.93;7.57;;;;;;;;;;4917751;29;20465;-71
2023/10/05 09:06:20;;;;;;;14.23;5.70;;;;;;;;;;4917696;29;20785;-71
2023/10/05 09:08:53;;;;;;;13.93;6.30;;;;;;;;;;4917845;29;20419;-71
2023/10/05 09:11:39;;;;;;;13.67;5.67;;;;;;;;;;4917795;29;20462;-72
2023/10/05 09:14:20;;;;;;;16.63;5.80;;;;;;;;;;4917615;29;20836;-71
2023/10/05 09:16:55;;;;;;;15.60;5.90;;;;;;;;;;4917358;29;20457;-71
2023/10/05 09:19:25;;;;;;;13.00;5.60;;;;;;;;;;4917696;29;20406;-70
2023/10/05 09:22:03;;;;;;;13.50;5.40;;;;;;;;;;4917707;29;20430;-70
2023/10/05 09:24:30;;;;;;;19.33;6.30;;;;;;;;;;4917652;29;20414;-71
2023/10/05 09:27:12;;;;;;;19.90;6.20;;;;;;;;;;4917378;29;20423;-71
2023/10/05 09:29:39;;;;;;;23.50;7.13;;;;;;;;;;4917532;29;20411;-71
2023/10/05 09:32:14;;;;;;;16.07;5.90;;;;;;;;;;4917579;29;20533;-70
2023/10/05 09:34:44;;;;;;;19.93;6.83;;;;;;;;;;4917451;29;20414;-72
2023/10/05 09:37:10;;;;;;;16.00;6.53;;;;;;;;;;4916949;29;20478;-72
2023/10/05 09:40:22;;;;;;;23.87;8.00;;;;;;;;;;4930944;29;20832;-71
2023/10/05 09:42:27;;;;;;;15.13;6.60;;;;;;;;;;4925819;29;20817;-72
2023/10/05 09:44:54;;;;;;;19.53;7.47;;;;;;;;;;4936068;29;20420;-72
2023/10/05 09:47:33;;;;;;;15.80;5.07;;;;;;;;;;4935570;29;20422;-72
2023/10/05 09:50:00;;;;;;;22.30;7.10;;;;;;;;;;4936083;29;20509;-71
2023/10/05 09:52:37;;;;;;;15.83;5.50;;;;;;;;;;4935794;29;20445;-71
2023/10/05 09:55:04;;;;;;;16.23;5.90;;;;;;;;;;4935317;29;20409;-71
2023/10/05 09:57:35;;;;;;;19.37;6.50;;;;;;;;;;4935743;29;21043;-71
2023/10/05 10:00:09;;;;;;;18.37;5.47;;;;;;;;;;4935449;29;20409;-71
2023/10/05 10:02:38;;;;;;;17.53;6.50;;;;;;;;;;4934936;29;20414;-71
2023/10/05 10:05:16;;;;;;;20.70;6.13;;;;;;;;;;4934425;29;20407;-71
2023/10/05 10:07:49;;;;;;;15.30;5.40;;;;;;;;;;4935496;29;20948;-71
2023/10/05 10:10:19;;;;;;;17.50;5.00;;;;;;;;;;4935405;29;20746;-72
2023/10/05 10:12:51;;;;;;;14.00;6.17;;;;;;;;;;4934176;29;20421;-70
2023/10/05 10:15:28;;;;;;;13.53;5.20;;;;;;;;;;4935389;29;20410;-70
2023/10/05 10:18:11;;;;;;;17.47;5.90;;;;;;;;;;4934522;29;20492;-71
2023/10/05 10:20:39;;;;;;;18.10;6.27;;;;;;;;;;4935242;29;20780;-70
2023/10/05 10:23:13;;;;;;;14.13;5.73;;;;;;;;;;4934655;29;20417;-71
2023/10/05 10:25:40;;;;;;;15.67;6.10;;;;;;;;;;4935156;29;20944;-71
2023/10/05 10:28:16;;;;;;;16.20;6.47;;;;;;;;;;4934912;29;20773;-71
2023/10/05 10:30:50;;;;;;;15.07;5.93;;;;;;;;;;4934902;29;20496;-71
2023/10/05 10:33:30;;;;;;;13.00;5.40;;;;;;;;;;4935224;29;20425;-71
2023/10/05 10:36:00;;;;;;;17.67;5.60;;;;;;;;;;4934857;29;20420;-71
2023/10/05 10:38:27;;;;;;;17.90;5.90;;;;;;;;;;4934776;29;20429;-70
2023/10/05 10:41:18;;;;;;;13.33;5.07;;;;;;;;;;4934882;29;20444;-71
2023/10/05 10:43:53;;;;;;;12.83;4.90;;;;;;;;;;4934810;29;20406;-70
2023/10/05 10:46:20;;;;;;;14.17;5.57;;;;;;;;;;4934789;29;20413;-70
2023/10/05 10:48:59;;;;;;;15.87;6.43;;;;;;;;;;4934903;29;20410;-72
2023/10/05 10:51:31;;;;;;;16.63;5.83;;;;;;;;;;4934729;29;20426;-71
2023/10/05 10:53:58;;;;;;;20.03;6.20;;;;;;;;;;4934499;29;20759;-71
2023/10/05 10:56:34;;;;;;;16.63;5.00;;;;;;;;;;4933886;29;20476;-71
2023/10/05 10:59:13;;;;;;;12.40;5.23;;;;;;;;;;4934546;29;20770;-71
2023/10/05 11:01:52;;;;;;;19.90;5.83;;;;;;;;;;4934459;29;20473;-71
2023/10/05 11:04:25;;;;;;;16.13;5.00;;;;;;;;;;4934550;29;20822;-71
2023/10/05 11:06:56;;;;;;;14.20;5.50;;;;;;;;;;4934113;29;20924;-71
2023/10/05 11:09:35;;;;;;;19.80;5.60;;;;;;;;;;4934826;29;20428;-71
2023/10/05 11:12:11;;;;;;;22.67;6.90;;;;;;;;;;4934375;29;20941;-69
2023/10/05 11:14:38;;;;;;;22.10;4.83;;;;;;;;;;4934868;29;20417;-69
2023/10/05 11:17:11;;;;;;;20.80;5.27;;;;;;;;;;4933574;29;20491;-70
2023/10/05 11:19:38;;;;;;;16.00;4.83;;;;;;;;;;4934585;29;20893;-67
2023/10/05 11:22:11;;;;;;;11.97;4.93;;;;;;;;;;4934592;29;20437;-67
2023/10/05 11:24:57;;;;;;;11.57;4.80;;;;;;;;;;4930335;29;20434;-68
2023/10/05 11:27:23;;;;;;;17.13;5.70;;;;;;;;;;4932431;29;20413;-68
2023/10/05 11:29:55;;;;;;;11.00;4.53;;;;;;;;;;4931757;29;20941;-68
2023/10/05 11:32:24;;;;;;;14.27;4.97;;;;;;;;;;4928157;29;20509;-67
2023/10/05 11:34:55;;;;;;;14.97;5.17;;;;;;;;;;4930370;29;20739;-67
2023/10/05 11:37:23;;;;;;;13.77;5.77;;;;;;;;;;4924316;29;20842;-68
2023/10/05 11:39:49;;;;;;;12.87;4.03;;;;;;;;;;4923102;29;20755;-68
2023/10/05 11:42:16;;;;;;;12.03;5.50;;;;;;;;;;4933582;29;20627;-68
2023/10/05 11:44:44;;;;;;;16.13;5.10;;;;;;;;;;4934069;29;20413;-68
2023/10/05 11:47:23;;;;;;;14.60;4.63;;;;;;;;;;4931263;29;20429;-68
2023/10/05 11:49:50;;;;;;;8.50;3.57;;;;;;;;;;4932458;29;20410;-67
2023/10/05 11:52:17;;;;;;;18.67;4.83;;;;;;;;;;4933597;29;20949;-67
2023/10/05 11:54:43;;;;;;;13.37;4.30;;;;;;;;;;4933769;29;20508;-67
2023/10/05 11:57:09;;;;;;;11.10;4.70;;;;;;;;;;4933448;29;20552;-68
2023/10/05 11:59:39;;;;;;;11.20;5.00;;;;;;;;;;4934330;29;20409;-67
2023/10/05 12:02:08;;;;;;;17.47;4.87;;;;;;;;;;4933734;29;20933;-68
2023/10/05 12:04:39;;;;;;;11.00;3.87;;;;;;;;;;4934058;29;21001;-68
2023/10/05 12:07:05;;;;;;;14.77;4.63;;;;;;;;;;4950167;29;20417;-69
2023/10/05 12:09:32;;;;;;;8.57;4.57;;;;;;;;;;4953367;29;20762;-69
2023/10/05 12:11:58;;;;;;;12.87;5.23;;;;;;;;;;4953149;28;20515;-68
2023/10/05 12:14:28;;;;;;;15.90;6.00;;;;;;;;;;4939947;28;20437;-68
2023/10/05 12:16:59;;;;;;;23.93;4.80;;;;;;;;;;4932595;29;20571;-69
2023/10/05 12:19:30;;;;;;;14.10;4.73;;;;;;;;;;4918526;29;20414;-69
2023/10/05 12:21:57;;;;;;;9.20;4.17;;;;;;;;;;4918609;29;20433;-70
2023/10/05 12:24:23;;;;;;;18.90;4.93;;;;;;;;;;4935036;29;20429;-70
2023/10/05 12:26:50;;;;;;;13.23;5.10;;;;;;;;;;4937682;29;20441;-69
2023/10/05 12:29:17;;;;;;;10.73;4.27;;;;;;;;;;4937247;29;20476;-69
2023/10/05 12:31:44;;;;;;;10.17;4.57;;;;;;;;;;4937145;29;20441;-69
2023/10/05 12:34:16;;;;;;;14.97;5.40;;;;;;;;;;4937216;29;20540;-69
2023/10/05 12:36:49;;;;;;;17.50;4.63;;;;;;;;;;4936211;29;20540;-69
2023/10/05 12:39:17;;;;;;;16.33;5.00;;;;;;;;;;4937149;29;20441;-69
2023/10/05 12:41:43;;;;;;;14.40;5.17;;;;;;;;;;4936740;29;20516;-69
2023/10/05 12:44:13;;;;;;;12.77;4.30;;;;;;;;;;4937091;29;20489;-69
2023/10/05 12:46:42;;;;;;;11.33;4.60;;;;;;;;;;4936605;29;20418;-69
2023/10/05 12:49:09;;;;;;;12.07;4.70;;;;;;;;;;4936790;29;20529;-70
2023/10/05 12:51:36;;;;;;;14.90;5.47;;;;;;;;;;4936847;29;20917;-69
2023/10/05 12:54:09;;;;;;;12.20;4.23;;;;;;;;;;4936733;29;20843;-69
2023/10/05 12:56:38;;;;;;;13.10;4.53;;;;;;;;;;4936582;29;20483;-69
2023/10/05 12:59:10;;;;;;;11.77;4.67;;;;;;;;;;4936270;29;20441;-69
2023/10/05 13:01:41;;;;;;;11.90;4.80;;;;;;;;;;4936450;29;20480;-68
2023/10/05 13:04:08;;;;;;;18.07;4.57;;;;;;;;;;4936411;29;20441;-69
2023/10/05 13:06:34;;;;;;;10.20;3.70;;;;;;;;;;4936378;29;20420;-69
2023/10/05 13:09:03;;;;;;;15.97;4.60;;;;;;;;;;4936486;29;20902;-69
2023/10/05 13:11:30;;;;;;;16.13;4.27;;;;;;;;;;4936334;29;20492;-69
2023/10/05 13:13:56;;;;;;;15.83;5.13;;;;;;;;;;4936428;29;20429;-69
2023/10/05 13:16:22;;;;;;;14.77;4.40;;;;;;;;;;4936441;29;20488;-69
2023/10/05 13:18:54;;;;;;;11.53;4.03;;;;;;;;;;4936515;29;20916;-69
2023/10/05 13:21:22;;;;;;;9.80;4.70;;;;;;;;;;4936372;29;20829;-69
2023/10/05 13:23:52;;;;;;;10.17;4.67;;;;;;;;;;4936475;29;20414;-69
2023/10/05 13:26:18;;;;;;;10.97;4.87;;;;;;;;;;4935847;29;20418;-69
2023/10/05 13:28:47;;;;;;;11.63;4.00;;;;;;;;;;4935046;29;20505;-69
2023/10/05 13:31:13;;;;;;;13.17;5.13;;;;;;;;;;4935702;29;20425;-69
2023/10/05 13:33:40;;;;;;;9.80;3.70;;;;;;;;;;4936390;29;20468;-69
2023/10/05 13:36:12;;;;;;;12.17;4.33;;;;;;;;;;4936111;29;20489;-69
2023/10/05 13:38:39;;;;;;;14.60;5.03;;;;;;;;;;4936160;29;20445;-70
2023/10/05 13:43:32;;;;;;;14.00;4.07;;;;;;;;;;4936286;29;20398;-69
2023/10/05 13:46:07;;;;;;;12.97;4.70;;;;;;;;;;4936017;29;20413;-69
2023/10/05 13:48:39;;;;;;;14.70;4.90;;;;;;;;;;4936228;29;20393;-70
2023/10/05 13:51:07;;;;;;;7.47;4.00;;;;;;;;;;4935642;29;20504;-69
2023/10/05 13:53:34;;;;;;;15.47;5.33;;;;;;;;;;4935150;29;20894;-69
2023/10/05 13:56:01;;;;;;;12.73;4.10;;;;;;;;;;4935386;29;20392;-68
2023/10/05 13:58:28;;;;;;;16.50;5.53;;;;;;;;;;4931061;29;20954;-72
2023/10/05 14:01:00;;;;;;;14.03;5.97;;;;;;;;;;4935310;29;20453;-72
2023/10/05 14:03:26;;;;;;;13.20;4.70;;;;;;;;;;4935859;29;20496;-72
2023/10/05 14:05:59;;;;;;;10.83;4.20;;;;;;;;;;4934290;29;20581;-72
2023/10/05 14:08:27;;;;;;;12.50;5.37;;;;;;;;;;4935153;29;20535;-70
2023/10/05 14:10:54;;;;;;;17.63;5.43;;;;;;;;;;4935633;29;20844;-70
2023/10/05 14:13:20;;;;;;;13.20;4.57;;;;;;;;;;4935047;29;20418;-73
2023/10/05 14:15:48;;;;;;;13.00;4.93;;;;;;;;;;4935672;29;20429;-72
2023/10/05 14:18:16;;;;;;;9.50;4.50;;;;;;;;;;4935336;29;20845;-70
2023/10/05 14:20:47;;;;;;;8.70;4.47;;;;;;;;;;4935600;29;20861;-73
2023/10/05 14:23:13;;;;;;;13.20;4.20;;;;;;;;;;4935820;29;20753;-71
2023/10/05 14:25:39;;;;;;;10.80;4.80;;;;;;;;;;4934133;29;20422;-73
2023/10/05 14:28:05;;;;;;;15.20;4.80;;;;;;;;;;4935702;29;20492;-70
2023/10/05 14:30:31;;;;;;;14.63;4.30;;;;;;;;;;4934086;29;20511;-73
2023/10/05 14:32:58;;;;;;;15.67;5.20;;;;;;;;;;4934954;29;20414;-73
2023/10/05 14:35:26;;;;;;;18.43;5.03;;;;;;;;;;4932231;29;20580;-75
2023/10/05 14:37:52;;;;;;;13.33;5.10;;;;;;;;;;4928825;29;20528;-75
2023/10/05 14:40:21;;;;;;;26.87;4.43;;;;;;;;;;4934593;29;20858;-74
2023/10/05 14:42:51;;;;;;;14.70;4.63;;;;;;;;;;4934641;29;20414;-75
2023/10/05 14:45:21;;;;;;;12.53;4.70;;;;;;;;;;4934512;29;20531;-75
2023/10/05 14:47:47;;;;;;;12.23;3.90;;;;;;;;;;4933283;29;20429;-74
2023/10/05 14:50:12;;;;;;;10.37;4.27;;;;;;;;;;4931904;29;20413;-72
2023/10/05 14:52:39;;;;;;;14.70;4.30;;;;;;;;;;4934604;29;20504;-74
2023/10/05 14:55:08;;;;;;;13.93;5.27;;;;;;;;;;4933041;29;20426;-74
2023/10/05 14:57:34;;;;;;;18.03;4.40;;;;;;;;;;4934306;29;20469;-72
2023/10/05 15:00:00;;;;;;;14.63;4.50;;;;;;;;;;4929348;29;20431;-73
2023/10/05 15:02:27;;;;;;;12.57;4.30;;;;;;;;;;4925267;29;20468;-72
2023/10/05 15:04:54;;;;;;;21.60;5.20;;;;;;;;;;4931730;29;20517;-74
2023/10/05 15:07:20;;;;;;;11.73;4.67;;;;;;;;;;4939334;29;20425;-73
2023/10/05 15:09:46;;;;;;;9.97;4.40;;;;;;;;;;4933460;29;20438;-74
2023/10/05 15:12:12;;;;;;;13.47;5.07;;;;;;;;;;4935144;29;20448;-74
2023/10/05 15:14:38;;;;;;;13.93;4.23;;;;;;;;;;4926317;29;20434;-73
2023/10/05 15:17:04;;;;;;;19.37;4.30;;;;;;;;;;4925881;29;20477;-75
2023/10/05 15:19:30;;;;;;;18.40;5.20;;;;;;;;;;4934831;29;20794;-74
2023/10/05 15:21:56;;;;;;;15.60;5.70;;;;;;;;;;4934549;29;20485;-75
2023/10/05 15:24:22;;;;;;;17.37;5.23;;;;;;;;;;4933387;29;20438;-75
2023/10/05 15:26:49;;;;;;;12.00;3.90;;;;;;;;;;4933819;29;20438;-75
2023/10/05 15:29:16;;;;;;;11.33;5.43;;;;;;;;;;4932577;29;20794;-75
2023/10/05 15:31:42;;;;;;;13.70;4.50;;;;;;;;;;4930045;29;20996;-73
2023/10/05 15:34:09;;;;;;;12.47;4.63;;;;;;;;;;4934203;29;20418;-74
2023/10/05 15:36:35;;;;;;;13.93;5.40;;;;;;;;;;4933911;29;20524;-75
2023/10/05 15:39:03;;;;;;;20.00;5.37;;;;;;;;;;4934397;29;20414;-74
2023/10/05 15:41:30;;;;;;;15.33;4.90;;;;;;;;;;4934158;29;20552;-74
2023/10/05 15:43:57;;;;;;;15.53;5.13;;;;;;;;;;4934352;29;20414;-74
2023/10/05 15:46:23;;;;;;;17.43;6.03;;;;;;;;;;4934067;29;20549;-74
2023/10/05 15:48:49;;;;;;;11.10;4.30;;;;;;;;;;4933814;29;20412;-75
2023/10/05 15:51:15;;;;;;;19.00;5.17;;;;;;;;;;4932663;29;20438;-76
2023/10/05 15:53:51;;;;;;;11.70;4.57;;;;;;;;;;4936053;29;20429;-74
2023/10/05 15:56:19;;;;;;;15.60;5.73;;;;;;;;;;4930145;29;20842;-74
2023/10/05 15:58:45;;;;;;;14.57;4.60;;;;;;;;;;4937864;29;20502;-74
2023/10/05 16:01:11;;;;;;;16.97;5.30;;;;;;;;;;4935465;29;20822;-74
2023/10/05 16:03:38;;;;;;;14.13;5.10;;;;;;;;;;4937488;29;20416;-74
2023/10/05 16:06:04;;;;;;;19.90;4.87;;;;;;;;;;4930404;29;20424;-75
2023/10/05 16:08:31;;;;;;;20.53;5.73;;;;;;;;;;4932611;29;20421;-74
2023/10/05 16:10:57;;;;;;;22.70;5.70;;;;;;;;;;4929369;29;20535;-75
2023/10/05 16:13:24;;;;;;;11.27;5.30;;;;;;;;;;4937532;29;20425;-74
2023/10/05 16:15:50;;;;;;;15.60;4.80;;;;;;;;;;4937270;29;20767;-73
2023/10/05 16:18:17;;;;;;;14.10;5.13;;;;;;;;;;4937146;29;21067;-73
2023/10/05 16:20:42;;;;;;;14.63;5.90;;;;;;;;;;4937333;29;20520;-74
2023/10/05 16:23:11;;;;;;;11.97;5.67;;;;;;;;;;4937534;29;20501;-73
2023/10/05 16:25:37;;;;;;;11.37;5.00;;;;;;;;;;4936984;29;20432;-73
2023/10/05 16:28:07;;;;;;;17.00;5.47;;;;;;;;;;4937103;29;20533;-73
2023/10/05 16:30:34;;;;;;;13.30;5.43;;;;;;;;;;4937024;29;20440;-73
2023/10/05 16:33:01;;;;;;;14.47;5.53;;;;;;;;;;4935704;29;20914;-73
2023/10/05 16:35:27;;;;;;;16.43;5.00;;;;;;;;;;4935951;29;20440;-74
2023/10/05 16:37:54;;;;;;;12.13;4.83;;;;;;;;;;4933425;29;20465;-74
2023/10/05 16:40:24;;;;;;;15.63;5.23;;;;;;;;;;4934753;29;20964;-73
2023/10/05 16:42:51;;;;;;;19.17;5.27;;;;;;;;;;4929840;29;20496;-74
2023/10/05 16:45:18;;;;;;;16.60;5.30;;;;;;;;;;4938670;29;20432;-74
2023/10/05 16:47:44;;;;;;;16.33;5.10;;;;;;;;;;4937818;29;20438;-73
2023/10/05 16:50:12;;;;;;;13.70;5.37;;;;;;;;;;4936559;29;20491;-75
2023/10/05 16:52:38;;;;;;;23.93;5.60;;;;;;;;;;4924476;29;20430;-72
2023/10/05 16:55:09;;;;;;;12.37;4.87;;;;;;;;;;4924006;29;20450;-72
2023/10/05 16:57:38;;;;;;;17.40;5.40;;;;;;;;;;4917337;29;20474;-72
2023/10/05 17:00:07;;;;;;;15.30;5.27;;;;;;;;;;4920844;29;20418;-72
2023/10/05 17:02:34;;;;;;;10.03;4.53;;;;;;;;;;4936130;29;20458;-72
2023/10/05 17:05:18;;;;;;;17.63;5.50;;;;;;;;;;4936787;29;20450;-72
2023/10/05 17:07:45;;;;;;;16.63;6.10;;;;;;;;;;4934977;29;20430;-72
2023/10/05 17:10:11;;;;;;;23.03;6.40;;;;;;;;;;4936482;29;20433;-72
2023/10/05 17:12:41;;;;;;;16.07;5.90;;;;;;;;;;4936364;29;20433;-72
2023/10/05 17:15:10;;;;;;;15.30;5.57;;;;;;;;;;4936770;29;21243;-73
2023/10/05 17:17:36;;;;;;;13.70;4.90;;;;;;;;;;4935893;29;20473;-74
2023/10/05 17:20:03;;;;;;;12.00;5.60;;;;;;;;;;4934722;29;20437;-76
2023/10/05 17:22:29;;;;;;;14.57;5.57;;;;;;;;;;4936146;29;20493;-74
2023/10/05 17:24:56;;;;;;;14.13;5.00;;;;;;;;;;4936566;29;20497;-74
2023/10/05 17:27:32;;;;;;;14.67;5.13;;;;;;;;;;4936383;29;20909;-76
2023/10/05 17:29:59;;;;;;;15.10;7.07;;;;;;;;;;4935702;29;20410;-74
2023/10/05 17:32:26;;;;;;;12.40;4.77;;;;;;;;;;4935995;29;20442;-74
2023/10/05 17:34:52;;;;;;;17.90;5.40;;;;;;;;;;4936336;29;20421;-74
2023/10/05 17:37:19;;;;;;;14.20;5.80;;;;;;;;;;4936376;29;20468;-74
2023/10/05 17:39:45;;;;;;;11.93;5.77;;;;;;;;;;4936362;29;20512;-74
2023/10/05 17:42:11;;;;;;;10.97;5.60;;;;;;;;;;4936311;29;20438;-75
2023/10/05 17:44:41;;;;;;;12.17;4.77;;;;;;;;;;4925248;29;20422;-74
2023/10/05 17:47:08;;;;;;;16.00;6.10;;;;;;;;;;4916877;29;20421;-74
2023/10/05 17:49:34;;;;;;;16.70;5.27;;;;;;;;;;4917168;29;20485;-74
2023/10/05 17:52:03;;;;;;;13.13;5.87;;;;;;;;;;4924239;29;20464;-74
2023/10/05 17:54:29;;;;;;;10.80;4.77;;;;;;;;;;4936327;29;20853;-72
2023/10/05 17:56:56;;;;;;;25.70;7.17;;;;;;;;;;4935907;29;20465;-76
2023/10/05 17:59:24;;;;;;;24.13;7.23;;;;;;;;;;4933344;29;20448;-75
2023/10/05 18:01:50;;;;;;;17.50;6.73;;;;;;;;;;4931656;29;20471;-75
2023/10/05 18:04:16;;;;;;;21.40;6.70;;;;;;;;;;4916928;29;20414;-74
2023/10/05 18:06:42;;;;;;;13.20;6.07;;;;;;;;;;4931763;29;20431;-75
2023/10/05 18:09:10;;;;;;;12.40;5.30;;;;;;;;;;4935905;29;20821;-75
2023/10/05 18:11:36;;;;;;;21.60;5.93;;;;;;;;;;4935528;29;20445;-74
2023/10/05 18:14:03;;;;;;;14.23;6.50;;;;;;;;;;4931516;29;20438;-76
2023/10/05 18:16:29;;;;;;;18.27;5.50;;;;;;;;;;4916061;29;20445;-76
2023/10/05 18:18:55;;;;;;;11.30;4.83;;;;;;;;;;4931874;29;20793;-76
2023/10/05 18:21:22;;;;;;;16.90;5.83;;;;;;;;;;4935976;29;20937;-75
2023/10/05 18:23:49;;;;;;;11.60;4.87;;;;;;;;;;4935353;29;20469;-75
2023/10/05 18:26:15;;;;;;;12.17;5.57;;;;;;;;;;4935021;29;20425;-75
2023/10/05 18:28:42;;;;;;;17.53;6.00;;;;;;;;;;4935869;29;20421;-75
2023/10/05 18:31:08;;;;;;;12.13;5.70;;;;;;;;;;4922974;29;20529;-75
2023/10/05 18:33:34;;;;;;;17.57;5.73;;;;;;;;;;4916578;29;20423;-74
2023/10/05 18:36:00;;;;;;;24.20;6.10;;;;;;;;;;4916358;29;20422;-75
2023/10/05 18:38:27;;;;;;;17.30;6.40;;;;;;;;;;4929511;29;20473;-75
2023/10/05 18:40:54;;;;;;;18.70;6.70;;;;;;;;;;4925398;29;20466;-74
2023/10/05 18:43:21;;;;;;;18.10;7.03;;;;;;;;;;4916899;29;20450;-74
2023/10/05 18:45:47;;;;;;;19.30;6.37;;;;;;;;;;4915894;29;20423;-74
2023/10/05 18:48:15;;;;;;;27.37;7.70;;;;;;;;;;4917525;29;20429;-74
2023/10/05 18:50:41;;;;;;;28.03;9.47;;;;;;;;;;4933703;29;20541;-74
2023/10/05 18:53:10;;;;;;;523.83;159.40;;;;;;;;;;4920740;29;20509;-74
2023/10/05 18:55:36;;;;;;;579.37;186.50;;;;;;;;;;4932596;29;20429;-74
2023/10/05 18:58:03;;;;;;;1102.73;391.53;;;;;;;;;;4934376;29;20472;-75
2023/10/05 19:00:29;;;;;;;72.00;23.30;;;;;;;;;;4934695;29;20462;-74
2023/10/05 19:02:57;;;;;;;45.40;14.50;;;;;;;;;;4923946;29;21155;-74
2023/10/05 19:05:23;;;;;;;32.53;10.50;;;;;;;;;;4915655;29;20469;-75
2023/10/05 19:07:49;;;;;;;21.73;8.53;;;;;;;;;;4914007;29;20965;-75
2023/10/05 19:10:16;;;;;;;129.80;40.77;;;;;;;;;;4916947;29;20521;-74
2023/10/05 19:12:42;;;;;;;247.90;73.43;;;;;;;;;;4919779;29;20430;-74
2023/10/05 19:15:13;;;;;;;1378.57;484.17;;;;;;;;;;4923606;29;20456;-76
2023/10/05 19:17:40;;;;;;;1674.37;566.77;;;;;;;;;;4933129;29;20466;-76
2023/10/05 19:20:06;;;;;;;1999.90;749.37;;;;;;;;;;4935554;29;20416;-76
2023/10/05 19:22:32;;;;;;;1999.90;792.33;;;;;;;;;;4936231;29;20453;-77
2023/10/05 19:25:00;;;;;;;958.13;342.37;;;;;;;;;;4933654;29;20504;-76
2023/10/05 19:27:26;;;;;;;929.40;338.27;;;;;;;;;;4933525;29;20425;-76
2023/10/05 19:29:52;;;;;;;707.77;237.47;;;;;;;;;;4938163;29;20964;-76
2023/10/05 19:32:18;;;;;;;114.70;37.47;;;;;;;;;;4941421;29;20433;-76
2023/10/05 19:34:44;;;;;;;51.63;15.83;;;;;;;;;;4941608;29;20528;-77
2023/10/05 19:37:09;;;;;;;35.87;14.93;;;;;;;;;;4941084;29;20563;-76
2023/10/05 19:39:36;;;;;;;18.73;8.30;;;;;;;;;;4940994;29;20456;-74
2023/10/05 19:42:04;;;;;;;37.00;9.47;;;;;;;;;;4939987;29;20433;-75